Kimesville, North Carolina
Current Conditions -  °F | °C
As of 11:35 PM on Tuesday 21 Oct 2014 (Local Time) from K5W8 Reporting Station
Scattered Clouds Scattered Clouds  
Wind Chill: 53°   Ceiling: Unl
Heat Index: 53°   Visibility: 10mi
Dew Point: 41°   Wind: 5mph
Humidity: 65%   Direction: 320°NW
Pressure: 29.97"   Gusts: NA
Location:  35.8814°N, 79.5689°W
Report Text: K5W8 220335Z AUTO 32004KT 10SM SCT080 12/05 A2997 RMK AO2 T01160052
Loading
Personal Weather Stations






























Interactive Weather Map
Tropical Storm Tracking
New forecast layout! Learn more

10-Day Weather Forecast

Advertisements
Track Severe Weather on mobile